• Join FlightAware (Why Join?)
  • Login
  • US Flag 
07:12PM EDT


 

Airport Tracker/Info


-or-


 

Live Flight TrackerFlight Track Log ✈ N8957N ✈ 21-Aug-2013 ✈ KGFL - N14

Flight Track Log - Related Links

Times and Time Zones

All times are in EDT time to prevent confusion due to time zone crossing. See the N8957N flight status page for this flight to view local times or setup timezone preferences in your user account.

Time Position Orientation Groundspeed Altitude Reporting Facility
EDT Latitude Longitude Course Direction KTS MPH feet Rate Location/Type
11:21AM 43.2406 -73.6144 184° South 105 121 2,300  Level Boston Center
11:22AM 43.2092 -73.6167 183° South 105 121 2,800 480 Climbing Boston Center
11:23AM 43.1883 -73.6161 179° South 105 121 3,200 540 Climbing Boston Center
11:24AM 43.1592 -73.6214 188° South 106 122 3,800 540 Climbing Boston Center
11:25AM 43.1300 -73.6264 187° South 105 121 4,300 480 Climbing Boston Center
11:26AM 43.1006 -73.6314 187° South 106 122 4,800 540 Climbing Boston Center
11:27AM 43.0611 -73.6364 185° South 108 124 5,600 480 Climbing Boston Center
11:28AM 43.0403 -73.6361 179° South 110 127 5,900 480 Climbing Boston Center
11:29AM 43.0111 -73.6383 183° South 110 127 6,400 540 Climbing Boston Center
11:30AM 42.9817 -73.6433 187° South 108 124 6,900 420 Climbing Boston Center
11:31AM 42.9464 -73.6428 179° South 109 125 7,400 300 Climbing Boston Center
11:32AM 42.9150 -73.6478 187° South 111 128 7,700 360 Climbing Boston Center
11:33AM 42.8756 -73.6469 179° South 118 136 8,200 360 Climbing Boston Center
11:34AM 42.8442 -73.6550 191° South 114 131 8,500 180 Climbing Boston Center
11:35AM 42.8128 -73.6572 183° South 123 142 8,600  Climbing Boston Center
11:36AM 42.7731 -73.6592 182° South 132 152 8,500 -60 Descending Boston Center
11:37AM 42.7336 -73.6669 188° South 132 152 8,500  Level Boston Center
11:38AM 42.6981 -73.6717 186° South 131 151 8,500  Level Boston Center
11:39AM 42.6689 -73.6742 184° South 130 150 8,500  Level Boston Center
11:40AM 42.6333 -73.6789 186° South 129 148 8,500  Level Boston Center
11:41AM 42.5936 -73.6894 191° South 129 148 8,500  Level Boston Center
11:42AM 42.5561 -73.6914 182° South 129 148 8,500  Level Boston Center
11:43AM 42.5183 -73.6992 189° South 131 151 8,500  Level Boston Center
11:44AM 42.4850 -73.7042 186° South 131 151 8,500  Level Boston Center
11:45AM 42.4475 -73.7119 189° South 131 151 8,500  Level Boston Center
11:46AM 42.4225 -73.7142 184° South 136 157 8,500  Level Boston Center
11:47AM 42.3892 -73.7192 186° South 136 157 8,500  Level Boston Center
11:48AM 42.3494 -73.7239 185° South 136 157 8,500  Level Boston Center
11:49AM 42.3181 -73.7289 187° South 141 162 8,500  Level Boston Center
11:50AM 42.2783 -73.7364 188° South 141 162 8,500  Level Boston Center
11:51AM 42.2511 -73.7556 208° Southwest 136 157 8,500  Level Boston Center
11:52AM 42.2175 -73.7800 208° Southwest 136 157 8,500 -60 Level Boston Center
11:53AM 42.1881 -73.7992 206° Southwest 136 157 8,400  Descending Boston Center
11:54AM 42.1544 -73.8236 208° Southwest 136 157 8,500  Climbing Boston Center
11:55AM 42.1250 -73.8425 205° Southwest 136 157 8,500  Level Boston Center
11:56AM 42.0892 -73.8669 207° Southwest 136 157 8,500  Level Boston Center
11:57AM 42.0597 -73.8942 214° Southwest 136 157 8,500  Level Boston Center
11:58AM 42.0281 -73.9158 207° Southwest 136 157 8,500  Level Boston Center
11:59AM 41.9967 -73.9347 204° Southwest 136 157 8,500  Level Boston Center
12:00PM 41.9672 -73.9564 209° Southwest 136 157 8,500  Level Boston Center
12:01PM 41.9336 -73.9778 205° Southwest 136 157 8,500  Level Boston Center
12:02PM 41.9019 -73.9936 200° South 136 157 8,500  Level Boston Center
12:03PM 41.8686 -74.0097 200° South 136 157 8,500  Level Boston Center
12:04PM 41.8350 -74.0228 196° South 131 151 8,500  Level Boston Center
12:05PM 41.8014 -74.0358 196° South 131 151 8,500  Level Boston Center
12:06PM 41.7700 -74.0461 194° South 125 144 8,500  Level Boston Center
12:07PM 41.7364 -74.0619 199° South 132 152 8,600  Climbing Boston Center
12:08PM 41.7050 -74.0778 201° Southwest 132 152 8,500 -60 Descending Boston Center
12:09PM 41.6756 -74.0883 195° South 132 152 8,500  Level Boston Center
12:10PM 41.6378 -74.1067 200° South 132 152 8,500  Level Boston Center
12:11PM 41.6042 -74.1225 199° South 132 152 8,600  Climbing Boston Center
12:12PM 41.5750 -74.1328 195° South 132 152 8,600  Level Boston Center
12:13PM 41.5433 -74.1542 207° Southwest 127 146 8,600  Level Boston Center
12:14PM 41.5158 -74.1728 207° Southwest 127 146 8,600 -60 Level Boston Center
12:15PM 41.4844 -74.1942 207° Southwest 127 146 8,500  Descending Boston Center
12:16PM 41.4547 -74.2211 214° Southwest 132 152 8,600  Climbing Boston Center
12:18PM 41.4000 -74.2667 212° Southwest 125 144 8,500 -60 Descending New York TRACON
12:19PM 41.3667 -74.2833 201° Southwest 120 138 8,500  Level New York TRACON
12:20PM 41.3333 -74.3167 217° Southwest 126 145 8,500  Level New York TRACON
12:21PM 41.3000 -74.3333 201° Southwest 120 138 8,500  Level New York TRACON
12:22PM 41.2667 -74.3667 217° Southwest 124 143 8,500  Level New York TRACON
12:23PM 41.2500 -74.3833 217° Southwest 121 139 8,500  Level New York TRACON
12:24PM 41.2167 -74.4167 217° Southwest 121 139 8,500  Level New York TRACON
12:25PM 41.1833 -74.4333 201° Southwest 124 143 8,500  Level New York TRACON
12:26PM 41.1667 -74.4500 217° Southwest 122 140 8,500  Level New York TRACON
12:27PM 41.1333 -74.4667 201° Southwest 123 142 8,500  Level New York TRACON
12:28PM 41.1000 -74.4833 201° Southwest 122 140 8,500  Level New York TRACON
12:29PM 41.0667 -74.5000 201° Southwest 125 144 8,500  Level New York TRACON
12:30PM 41.0333 -74.5167 201° Southwest 128 147 8,500  Level New York TRACON
12:31PM 41.0000 -74.5333 201° Southwest 122 140 8,500  Level New York TRACON
12:32PM 40.9667 -74.5500 201° Southwest 122 140 8,500  Level New York TRACON
12:33PM 40.9333 -74.5667 201° Southwest 126 145 8,500  Level New York TRACON
12:34PM 40.9000 -74.5833 201° Southwest 129 148 8,500  Level New York TRACON
12:35PM 40.8667 -74.6000 201° Southwest 129 148 8,500  Level New York TRACON
12:36PM 40.8333 -74.6167 201° Southwest 127 146 8,500  Level New York TRACON
12:37PM 40.8000 -74.6333 201° Southwest 131 151 8,500  Level New York TRACON
12:38PM 40.7667 -74.6333 180° South 131 151 8,500  Level New York TRACON
12:39PM 40.7333 -74.6500 201° Southwest 134 154 8,500 -60 Level New York TRACON
12:40PM 40.6833 -74.6500 180° South 134 154 8,400 -180 Descending New York TRACON
12:41PM 40.6500 -74.6667 201° Southwest 142 163 8,200 -360 Descending New York TRACON
12:42PM 40.6000 -74.6667 180° South 147 169 7,700 -480 Descending New York TRACON
12:43PM 40.5667 -74.6833 201° Southwest 147 169 7,300 -480 Descending New York TRACON
12:44PM 40.5333 -74.6833 180° South 151 174 6,800 -480 Descending New York TRACON
12:46PM 40.4500 -74.7000 189° South 151 174 6,000 -480 Descending Philadelphia TRACON
12:47PM 40.4000 -74.7167 194° South 155 178 5,400 -540 Descending Philadelphia TRACON
12:48PM 40.3667 -74.7167 180° South 152 175 5,000 -480 Descending Philadelphia TRACON
12:49PM 40.3167 -74.7333 194° South 146 168 4,500 -480 Descending Philadelphia TRACON
12:50PM 40.2833 -74.7333 180° South 142 163 4,100 -360 Descending Philadelphia TRACON
12:51PM 40.2500 -74.7500 201° Southwest 135 155 3,800 -360 Descending Philadelphia TRACON
12:52PM 40.2000 -74.7500 180° South 137 158 3,400 -360 Descending Philadelphia TRACON
12:53PM 40.1667 -74.7500 180° South 139 160 3,200 -360 Descending Philadelphia TRACON
12:54PM 40.1333 -74.7667 201° Southwest 136 157 2,800 -420 Descending Philadelphia TRACON
12:56PM 40.0710 -74.7500 180° South  Level FlightAware Approximate
01:03PM 39.9333 -74.8000 198° South  Level FlightAware Approximate
01:04PM 39.9343 -74.8072 198° South  Level Estimated
01:05PM 39.9333 -74.8000 198° South  Level FlightAware Approximate
01:06PM 39.9343 -74.8072 198° South  Level Estimated
01:07PM 39.9333 -74.8000 198° South  Level FlightAware Approximate
01:08PM 39.9343 -74.8072 198° South  Level Estimated
01:09PM 39.9333 -74.8000 198° South  Level FlightAware Approximate
01:10PM 39.9343 -74.8072 198° South  Level Estimated
01:11PM 39.9333 -74.8000 198° South  Level FlightAware Approximate
01:12PM 39.9343 -74.8072 198° South  Level Estimated
01:13PM 39.9333 -74.8000 198° South  Level FlightAware Approximate
01:14PM 39.9343 -74.8072 198° South  Level Estimated
01:15PM 39.9333 -74.8000 198° South  Level FlightAware Approximate
01:16PM 39.9343 -74.8072 198° South  Level Estimated
01:17PM 39.9333 -74.8000 198° South  Level FlightAware Approximate
01:18PM 39.9343 -74.8072 198° South  Level Estimated
01:19PM 39.9333 -74.8000 198° South  Level FlightAware Approximate
01:20PM 39.9343 -74.8072 198° South  Level Estimated
01:21PM 39.9333 -74.8000 198° South  Level FlightAware Approximate